Blakely Island, Washington
Current Conditions -  °F | °C
As of 11:53 AM on Saturday 25 Oct 2014 (Local Time) from KFHR Reporting Station
Scattered Clouds Scattered Clouds  
Wind Chill: 57°   Ceiling: Unl
Heat Index: 57°   Visibility: 10mi
Dew Point: 50°   Wind: 5mph
Humidity: 77%   Direction: 150°SSE
Pressure: 29.42"   Gusts: NA
Location:  48.56°N, 122.8°W
Report Text: KFHR 251853Z AUTO 15004KT 10SM SCT018 14/10 A2942 RMK AO2 SLP962 T01390100
Loading
Personal Weather Stations






























Interactive Weather Map
Tropical Storm Tracking
New forecast layout! Learn more

10-Day Weather Forecast

Advertisements
Track Severe Weather on mobile